Vremea acum in Sângeorgiu De Pădure - Romania

Vrei sa afli care e starea vremii acum in Mures - Romania? Dorim sa iti furnizam starea vremii pentru Mures - Romania. Starea vremii Mures - Romania pentru astazi.

Vremea acum in Sângeorgiu De Pădure

Temperatura: 11.3 °C

Este: Senin
Se simte ca: 11.7 °C
Innorat: 0 %
Precipitatii: 0 %
Presiune atmosferica: 1016 hPa
Umiditate: 62%
Vizibilitate: 10 km
Vantul bate din SSW cu 3.6 km/h

Evolutia vremii in Sângeorgiu De Pădure pe ore

Ora: 04:00
Senin
Temperatura: 7.6°C
Sansa de precipitatii: 0%
Ora Descriere Temp Se simte Precipitatii Umiditate Vant
00:00Senin9.4°9.4°0%84%SSW 4 KM/H
01:00Senin11.3°8.7°0%62%SSW 3.6 KM/H
02:00Senin8.4°8.4°0%85%SSW 2.2 KM/H
03:00Senin7.9°7.9°0%86%SSE 2.9 KM/H
04:00Senin7.6°7.4°0%87%SSE 4 KM/H
05:00Senin7.2°7.2°0%87%SSE 3.6 KM/H
06:00Senin6.8°0%88%SE 4 KM/H
07:00Senin7.9°0%86%ESE 4 KM/H
08:00Senin12°12.4°0%78%ESE 4 KM/H
09:00Senin14.6°15.2°0%71%ESE 4 KM/H
10:00Senin17°17°0%63%SE 3.2 KM/H
11:00Senin19.1°19.1°0%56%SSE 1.4 KM/H
12:00Senin20.8°20.8°0%51%SW 1.1 KM/H
13:00Senin22.1°24.3°0%46%ESE 0.4 KM/H
14:00Senin22.8°24.3°0%41%ESE 1.8 KM/H
15:00Senin23.3°24.3°0%37%ESE 1.8 KM/H
16:00Senin23.3°24.2°0%36%ENE 0.7 KM/H
17:00Senin23°24.1°0%36%NW 2.2 KM/H
18:00Senin22.7°24.2°0%39%NW 3.6 KM/H
19:00Senin20.7°20.7°0%53%NNW 4.7 KM/H
20:00Senin15.9°15.9°0%57%E 2.2 KM/H
21:00Senin13.4°13.4°0%61%SE 2.9 KM/H
22:00Senin12.4°13.1°0%63%SE 3.2 KM/H
23:00Senin11.7°11.5°0%63%SSE 5.8 KM/H




tutorials